Blue Hill Meteorological Observatory

42° 12' 44"N, 71° 06' 53"W, Elevation 635 ft.
Eastern Time

Hourly observations for the last 72 hours

Date Time Temperature (°F) Humi-
dity

(%)
Wind
(mph)
Pressure Rain (in) Sun
(W/m2)
ET
(in)
Air Dew 6 Hour 1 Hr 3 Hr 6 Hr Day
Alt
(in)
Sea
Level

(mb)
Max Min
27 01:00 60.5 59.1 69.0 60.5 95 NE 8 G 11 30.08 1018.6 0.00 0 0.000
27 00:00 65.1 63.9 96 S 4 G 7 30.07 1018.5 0.01 0 0.163
26 23:00 63.9 62.4 95 SE 9 G 11 30.06 1018.1 0.01 0 0.162
26 22:00 65.8 64.0 94 S 5 G 9 30.08 1018.5 0.01 0 0.161
26 21:00 65.9 63.2 91 SE 10 G 12 30.06 1018.0 0.01 0 0.160
26 20:00 66.4 63.4 90 ESE 11 G 13 30.06 1017.9 0.01 0 0.159
26 19:00 69.0 64.6 77.5 69.0 86 E 8 G 10 30.04 1017.4 0.01 9 0.157
26 18:00 70.2 65.1 84 ESE 5 G 7 30.03 1016.9 0.01 39 0.151
26 17:00 74.1 67.2 79 ENE 10 G 13 30.01 1016.3 0.01 327 0.140
26 16:00 76.5 68.4 76 ENE 10 G 12 30.01 1016.3 0.01 513 0.124
26 15:00 76.8 69.4 78 ENE 6 G 11 30.01 1016.3 0.01 668 0.105
26 14:00 75.8 69.2 80 ENE 10 G 14 30.01 1016.2 0.01 795 0.084
26 13:00 75.5 69.3 75.5 66.3 81 NNE 7 G 11 30.01 1016.4 0.01 877 0.061
26 12:00 75.0 69.1 82 NE 7 G 12 30.02 1016.5 0.01 949 0.038
26 11:00 73.1 68.7 86 NE 6 G 12 30.03 1017.0 0.01 506 0.025
26 10:00 70.5 69.3 96 NE 5 G 9 30.03 1016.8 0.01 459 0.016
26 09:00 69.4 68.8 98 NE 4 G 8 30.02 1016.7 0.01 515 0.008
26 08:00 68.4 67.8 98 NW 6 G 9 30.01 1016.4 0.01 176 0.004
26 07:00 66.4 65.5 66.7 64.2 97 NNW 4 G 10 30.01 1016.2 0.01 0.01 0.01 70 0.002
26 06:00 66.1 65.5 98 NNE 6 G 10 30.00 1015.9 0.01 0.01 74 0.001
26 05:00 65.5 64.9 98 W 8 G 10 29.99 1015.5 0.00 35 0.000
26 04:00 64.7 64.1 98 W 8 G 10 29.96 1014.6 0.00 0 0.000
26 03:00 64.6 63.7 97 SW 6 G 7 29.95 1014.1 0.00 0 0.000
26 02:00 65.1 64.2 97 SW 4 G 5 29.94 1013.9 0.00 0 0.000
26 01:00 65.6 64.7 66.3 65.5 97 SW 4 G 6 29.94 1013.9 0.05 0.00 0 0.000
26 00:00 65.6 64.7 97 SSW 6 G 9 29.94 1013.8 0.07 0 0.065
25 23:00 65.8 64.9 97 SSW 8 G 14 29.93 1013.7 0.07 0 0.065
25 22:00 66.0 65.1 97 S 12 G 19 29.93 1013.4 0.05 0.07 0 0.065
25 21:00 66.1 64.9 96 SSE 15 G 22 29.91 1012.9 0.05 0.07 0 0.064
25 20:00 66.2 65.0 96 SSE 16 G 25 29.90 1012.5 0.02 0 0.063
25 19:00 66.2 64.7 69.7 66.1 95 SSE 18 G 30 29.90 1012.7 0.01 0.01 0.01 0.02 0 0.062
25 18:00 67.0 65.2 94 SSE 17 G 33 29.89 1012.2 0.01 44 0.060
25 17:00 67.9 66.1 94 S 20 G 30 29.88 1012.0 0.01 72 0.057
25 16:00 68.1 66.6 95 SSE 21 G 36 29.88 1011.9 0.01 155 0.053
25 15:00 68.4 67.2 96 SSE 15 G 25 29.89 1012.3 0.01 123 0.050
25 14:00 68.6 67.1 95 SSE 17 G 26 29.90 1012.7 0.01 95 0.048
25 13:00 69.5 67.7 72.5 67.1 94 SSE 11 G 17 29.90 1012.6 0.01 0.01 0.01 0.01 183 0.044
25 12:00 71.1 68.7 92 SSE 15 G 22 29.91 1012.9 0.00 155 0.040
25 11:00 71.8 68.1 88 SSE 10 G 19 29.91 1012.8 0.00 130 0.035
25 10:00 71.7 67.6 87 SSE 10 G 14 29.92 1013.3 0.00 172 0.028
25 09:00 71.7 67.3 86 SSE 7 G 12 29.92 1013.1 0.00 241 0.020
25 08:00 70.1 65.7 86 SSE 4 G 10 29.92 1013.2 0.00 269 0.013
25 07:00 67.2 63.9 67.2 60.8 89 SE 7 G 9 29.91 1013.0 0.00 207 0.008
25 06:00 65.1 62.4 91 SSE 7 G 10 29.93 1013.4 0.00 243 0.005
25 05:00 61.3 59.3 93 SSE 7 G 10 29.91 1012.9 0.00 72 0.004
25 04:00 61.0 58.7 92 SSE 7 G 9 29.90 1012.6 0.00 0 0.003
25 03:00 62.4 58.8 88 SSE 9 G 11 29.90 1012.5 0.00 0 0.002
25 02:00 62.6 59.0 88 SSE 7 G 11 29.89 1012.2 0.00 0 0.001
25 01:00 64.1 59.5 70.1 64.1 85 SSE 6 G 8 29.88 1011.8 0.00 0 0.000
25 00:00 65.2 60.2 84 S 3 G 5 29.87 1011.5 0.00 0 0.262
24 23:00 66.2 60.5 82 SSE 5 G 10 29.88 1011.7 0.00 0 0.261
24 22:00 66.7 60.3 80 SSE 7 G 11 29.86 1011.3 0.00 0 0.259
24 21:00 67.0 59.9 78 SE 8 G 11 29.86 1011.3 0.00 0 0.257
24 20:00 68.1 58.0 70 ESE 9 G 12 29.85 1010.9 0.00 0 0.254
24 19:00 70.1 55.1 84.2 70.1 59 ESE 9 G 11 29.85 1010.8 0.00 14 0.249
24 18:00 73.6 59.3 61 ESE 9 G 11 29.84 1010.5 0.00 53 0.241
24 17:00 76.3 60.0 57 ESE 8 G 12 29.84 1010.4 0.00 155 0.229
24 16:00 79.3 60.7 53 E 9 G 14 29.83 1010.4 0.00 290 0.213
24 15:00 83.3 63.3 51 NNE 5 G 8 29.84 1010.5 0.00 701 0.192
24 14:00 83.3 60.4 46 NNE 4 G 8 29.84 1010.5 0.00 833 0.167
24 13:00 83.0 59.5 83.1 67.8 45 W 12 G 16 29.84 1010.7 0.00 895 0.138
24 12:00 82.2 56.9 42 NW 8 G 21 29.84 1010.6 0.00 937 0.108
24 11:00 80.8 58.1 46 NW 9 G 13 29.85 1010.9 0.00 925 0.083
24 10:00 78.4 59.3 52 NE 5 G 10 29.86 1011.1 0.00 835 0.061
24 09:00 76.6 61.2 59 WNW 4 G 10 29.86 1011.3 0.00 742 0.042
24 08:00 72.5 59.6 64 W 7 G 12 29.86 1011.1 0.00 610 0.028
24 07:00 67.8 58.5 67.8 61.0 72 W 7 G 15 29.84 1010.7 0.00 424 0.019
24 06:00 62.9 56.3 79 W 9 G 13 29.84 1010.5 0.00 230 0.015
24 05:00 61.9 54.6 77 W 13 G 18 29.83 1010.0 0.00 30 0.012
24 04:00 61.5 54.6 78 W 11 G 14 29.82 1009.8 0.00 0 0.010
24 03:00 62.1 54.5 76 W 11 G 14 29.81 1009.5 0.00 0 0.007
24 02:00 64.4 55.2 72 W 12 G 18 29.81 1009.5 0.00 0 0.004

Data generated by WxSolution Version 1.9.1.5, Build 2018.05.20.